Back to Top

Language: 

My Weather Underground Personal Weather Station Historical Data with Graphs...

Delerius Weather Station Historical Data
Daily Summary for January 29, 2018 Units:  Metric    English   Both
« Previous Day
Next Day »
Daily Weekly Monthly Yearly Custom
  High: Low: Average:
Temperature: 11 °C 3.4 °C 8 °C
Dew Point: 8.8 °C 1.3 °C 5.4 °C
Humidity: 93 % 74 % 84 %
Wind Speed: 40.2 km/h 0 km/h 17.9 km/h
Wind Gust: 66 km/h - -
Wind:- - West
Pressure: 1029.7 hPa 1017.5 hPa -
Precipitation: 4.57 mm    
Historical Graphs
 
 
Tabular Data for January 29, 2018
Time Temperature Dew Point Pressure Wind Wind Speed Wind Gust Humidity Rainfall Rate (Hourly) solar Conditions
00:02 10.6 °C 7.3 °C 1021.2 hPa WSW 37 km/h 56.3 km/h 80 % 0 mm 0 W/m2
00:07 10.6 °C 7.3 °C 1021.2 hPa WSW 30.6 km/h 46.7 km/h 80 % 0 mm 0 W/m2
00:12 10.6 °C 7.3 °C 1021.2 hPa WSW 35.4 km/h 51.5 km/h 80 % 0 mm 0 W/m2
00:17 10.6 °C 7.3 °C 1020.9 hPa WSW 32.2 km/h 53.1 km/h 80 % 0 mm 0 W/m2
00:22 10.6 °C 7.3 °C 1020.9 hPa WSW 29 km/h 48.3 km/h 80 % 0 mm 0 W/m2
00:27 10.7 °C 7.4 °C 1020.9 hPa WSW 27.4 km/h 41.8 km/h 80 % 0 mm 0 W/m2
00:32 10.6 °C 7.3 °C 1020.9 hPa WSW 32.2 km/h 46.7 km/h 80 % 0 mm 0 W/m2
00:37 10.7 °C 7.2 °C 1020.9 hPa WSW 30.6 km/h 46.7 km/h 79 % 0 mm 0 W/m2
00:42 10.7 °C 7.2 °C 1020.5 hPa WSW 40.2 km/h 66 km/h 79 % 0 mm 0 W/m2
00:47 10.7 °C 7.2 °C 1020.5 hPa West 37 km/h 51.5 km/h 79 % 0 mm 0 W/m2
00:52 10.7 °C 7.2 °C 1020.9 hPa West 33.8 km/h 49.9 km/h 79 % 0 mm 0 W/m2
00:57 10.8 °C 7.3 °C 1020.9 hPa WSW 38.6 km/h 56.3 km/h 79 % 0 mm 0 W/m2
01:02 10.8 °C 7.3 °C 1020.5 hPa WSW 29 km/h 48.3 km/h 79 % 0 mm 0 W/m2
01:07 10.7 °C 7.2 °C 1020.5 hPa WSW 37 km/h 53.1 km/h 79 % 0 mm 0 W/m2
01:12 10.7 °C 7.2 °C 1020.2 hPa WSW 37 km/h 49.9 km/h 79 % 0 mm 0 W/m2
01:17 10.7 °C 7.2 °C 1020.2 hPa WSW 29 km/h 45.1 km/h 79 % 0 mm 0 W/m2
01:23 10.8 °C 7.3 °C 1020.2 hPa WSW 33.8 km/h 56.3 km/h 79 % 0 mm 0 W/m2
01:28 10.8 °C 7.1 °C 1020.2 hPa WSW 35.4 km/h 48.3 km/h 78 % 0 mm 0 W/m2
01:33 10.8 °C 7.3 °C 1019.9 hPa WSW 33.8 km/h 53.1 km/h 79 % 0 mm 0 W/m2
01:38 10.8 °C 7.3 °C 1019.9 hPa WSW 29 km/h 45.1 km/h 79 % 0 mm 0 W/m2
01:43 10.8 °C 7.3 °C 1019.9 hPa WSW 37 km/h 53.1 km/h 79 % 0 mm 0 W/m2
01:48 10.8 °C 7.3 °C 1019.9 hPa WSW 38.6 km/h 53.1 km/h 79 % 0 mm 0 W/m2
01:53 10.8 °C 7.3 °C 1019.9 hPa WSW 33.8 km/h 54.7 km/h 79 % 0 mm 0 W/m2
01:58 10.9 °C 7.4 °C 1019.5 hPa WSW 33.8 km/h 56.3 km/h 79 % 0 mm 0 W/m2
02:03 10.8 °C 7.3 °C 1019.5 hPa WSW 37 km/h 56.3 km/h 79 % 0 mm 0 W/m2
02:08 10.8 °C 7.3 °C 1019.5 hPa WSW 35.4 km/h 59.5 km/h 79 % 0 mm 0 W/m2
02:13 10.8 °C 7.3 °C 1019.5 hPa WSW 32.2 km/h 51.5 km/h 79 % 0 mm 0 W/m2
02:18 10.8 °C 7.3 °C 1019.5 hPa WSW 35.4 km/h 51.5 km/h 79 % 0 mm 0 W/m2
02:23 10.8 °C 7.5 °C 1019.2 hPa WSW 38.6 km/h 54.7 km/h 80 % 0 mm 0 W/m2
02:28 10.8 °C 7.5 °C 1019.2 hPa WSW 35.4 km/h 57.9 km/h 80 % 0 mm 0 W/m2
02:33 10.8 °C 7.5 °C 1019.2 hPa WSW 35.4 km/h 54.7 km/h 80 % 0 mm 0 W/m2
02:38 10.8 °C 7.5 °C 1019.2 hPa WSW 33.8 km/h 62.8 km/h 80 % 0 mm 0 W/m2
02:43 10.8 °C 7.7 °C 1018.8 hPa WSW 30.6 km/h 46.7 km/h 81 % 0 mm 0 W/m2
02:48 10.8 °C 7.7 °C 1018.8 hPa WSW 33.8 km/h 48.3 km/h 81 % 0 mm 0 W/m2
02:53 10.8 °C 7.7 °C 1019.2 hPa WSW 32.2 km/h 57.9 km/h 81 % 0 mm 0 W/m2
02:58 10.8 °C 7.7 °C 1018.8 hPa WSW 33.8 km/h 46.7 km/h 81 % 0 mm 0 W/m2
03:03 10.8 °C 7.7 °C 1018.8 hPa WSW 27.4 km/h 41.8 km/h 81 % 0 mm 0 W/m2
03:08 10.8 °C 7.7 °C 1018.8 hPa WSW 32.2 km/h 54.7 km/h 81 % 0 mm 0 W/m2
03:13 10.9 °C 7.8 °C 1018.8 hPa WSW 32.2 km/h 45.1 km/h 81 % 0 mm 0 W/m2
03:18 10.9 °C 7.8 °C 1018.8 hPa WSW 25.7 km/h 43.5 km/h 81 % 0 mm 0 W/m2
03:23 10.9 °C 7.8 °C 1018.8 hPa WSW 27.4 km/h 37 km/h 81 % 0 mm 0 W/m2
03:28 10.9 °C 7.8 °C 1018.8 hPa WSW 25.7 km/h 45.1 km/h 81 % 0 mm 0 W/m2
03:33 11 °C 7.9 °C 1018.8 hPa WSW 25.7 km/h 48.3 km/h 81 % 0 mm 0 W/m2
03:38 11 °C 7.9 °C 1018.8 hPa WSW 24.1 km/h 40.2 km/h 81 % 0 mm 0 W/m2
03:43 11 °C 8.1 °C 1018.5 hPa SW 25.7 km/h 37 km/h 82 % 0 mm 0 W/m2
03:48 10.9 °C 7.9 °C 1018.8 hPa WSW 22.5 km/h 38.6 km/h 82 % 0 mm 0 W/m2
03:53 10.9 °C 8.1 °C 1018.5 hPa WSW 25.7 km/h 41.8 km/h 83 % 0 mm 0 W/m2
03:58 10.8 °C 8 °C 1018.5 hPa SW 30.6 km/h 46.7 km/h 83 % 0 mm 0 W/m2
04:03 10.8 °C 8 °C 1018.5 hPa WSW 20.9 km/h 38.6 km/h 83 % 0 mm 0 W/m2
04:08 10.8 °C 8.2 °C 1018.5 hPa SW 24.1 km/h 43.5 km/h 84 % 0 mm 0 W/m2
04:13 10.8 °C 8.2 °C 1018.5 hPa WSW 20.9 km/h 38.6 km/h 84 % 0 mm 0 W/m2
04:18 10.8 °C 8.4 °C 1018.2 hPa SW 22.5 km/h 33.8 km/h 85 % 0 mm 0 W/m2
04:23 10.8 °C 8.4 °C 1018.2 hPa SW 27.4 km/h 43.5 km/h 85 % 0 mm 0 W/m2
04:28 10.7 °C 8.3 °C 1018.5 hPa WSW 20.9 km/h 41.8 km/h 85 % 0 mm 0 W/m2
04:33 10.7 °C 8.3 °C 1018.5 hPa WSW 19.3 km/h 30.6 km/h 85 % 0 mm 0 W/m2
04:38 10.7 °C 8.4 °C 1018.5 hPa SW 25.7 km/h 37 km/h 86 % 0 mm 0 W/m2
04:43 10.7 °C 8.4 °C 1018.5 hPa SW 25.7 km/h 40.2 km/h 86 % 0 mm 0 W/m2
04:49 10.7 °C 8.4 °C 1018.5 hPa SW 27.4 km/h 49.9 km/h 86 % 0 mm 0 W/m2
04:54 10.7 °C 8.4 °C 1018.5 hPa SW 25.7 km/h 40.2 km/h 86 % 0 mm 0 W/m2
04:59 10.7 °C 8.4 °C 1018.5 hPa SW 27.4 km/h 40.2 km/h 86 % 0 mm 0 W/m2
05:04 10.7 °C 8.4 °C 1018.5 hPa SW 24.1 km/h 43.5 km/h 86 % 0 mm 0 W/m2
05:09 10.7 °C 8.4 °C 1018.5 hPa SW 24.1 km/h 41.8 km/h 86 % 0 mm 0 W/m2
05:14 10.7 °C 8.4 °C 1018.5 hPa SW 24.1 km/h 43.5 km/h 86 % 0 mm 0 W/m2
05:19 10.7 °C 8.4 °C 1018.5 hPa SW 24.1 km/h 40.2 km/h 86 % 0 mm 0 W/m2
05:24 10.7 °C 8.4 °C 1018.2 hPa SW 17.7 km/h 33.8 km/h 86 % 0 mm 0 W/m2
05:29 10.7 °C 8.4 °C 1018.2 hPa SW 25.7 km/h 43.5 km/h 86 % 0 mm 0 W/m2
05:34 10.7 °C 8.4 °C 1017.8 hPa SW 24.1 km/h 40.2 km/h 86 % 0 mm 0 W/m2
05:39 10.6 °C 8.5 °C 1017.8 hPa SW 17.7 km/h 24.1 km/h 87 % 0 mm 0 W/m2
05:44 10.6 °C 8.5 °C 1017.8 hPa SW 25.7 km/h 49.9 km/h 87 % 0 mm 0 W/m2
05:49 10.6 °C 8.5 °C 1017.8 hPa SW 25.7 km/h 37 km/h 87 % 0 mm 0 W/m2
05:54 10.6 °C 8.5 °C 1017.8 hPa SW 25.7 km/h 41.8 km/h 87 % 0 mm 0 W/m2
05:59 10.6 °C 8.5 °C 1017.8 hPa SW 24.1 km/h 33.8 km/h 87 % 0 mm 0 W/m2
06:04 10.7 °C 8.6 °C 1017.8 hPa SW 27.4 km/h 40.2 km/h 87 % 0 mm 0 W/m2
06:09 10.7 °C 8.6 °C 1017.8 hPa SW 20.9 km/h 32.2 km/h 87 % 0 mm 0 W/m2
06:14 10.7 °C 8.4 °C 1017.8 hPa SW 20.9 km/h 37 km/h 86 % 0 mm 0 W/m2
06:19 10.7 °C 8.4 °C 1017.8 hPa SW 20.9 km/h 37 km/h 86 % 0 mm 0 W/m2
06:24 10.7 °C 8.4 °C 1017.5 hPa SW 19.3 km/h 32.2 km/h 86 % 0 mm 0 W/m2
06:29 10.8 °C 8.6 °C 1017.8 hPa SW 25.7 km/h 37 km/h 86 % 0 mm 0 W/m2
06:34 10.8 °C 8.6 °C 1017.8 hPa SW 24.1 km/h 38.6 km/h 86 % 0 mm 0 W/m2
06:39 10.8 °C 8.6 °C 1017.8 hPa WSW 27.4 km/h 40.2 km/h 86 % 0 mm 0 W/m2
06:44 10.8 °C 8.7 °C 1017.8 hPa SW 22.5 km/h 33.8 km/h 87 % 0 mm 0 W/m2
06:49 10.8 °C 8.7 °C 1017.8 hPa SW 22.5 km/h 37 km/h 87 % 0 mm 0 W/m2
06:54 10.7 °C 8.6 °C 1017.8 hPa SW 22.5 km/h 35.4 km/h 87 % 0 mm 0 W/m2
06:59 10.7 °C 8.6 °C 1017.8 hPa SW 20.9 km/h 35.4 km/h 87 % 0 mm 0 W/m2
07:04 10.7 °C 8.6 °C 1017.8 hPa SW 19.3 km/h 30.6 km/h 87 % 0 mm 0 W/m2
07:09 10.7 °C 8.6 °C 1017.8 hPa SW 20.9 km/h 35.4 km/h 87 % 0 mm 0 W/m2
07:14 10.7 °C 8.6 °C 1017.8 hPa SW 22.5 km/h 38.6 km/h 87 % 0 mm 0 W/m2
07:19 10.7 °C 8.6 °C 1017.8 hPa SW 20.9 km/h 30.6 km/h 87 % 0 mm 0 W/m2
07:24 10.7 °C 8.6 °C 1018.2 hPa WSW 22.5 km/h 37 km/h 87 % 0 mm 0 W/m2
07:29 10.7 °C 8.6 °C 1018.2 hPa SW 20.9 km/h 37 km/h 87 % 0 mm 0 W/m2
07:34 10.6 °C 8.7 °C 1018.2 hPa SW 17.7 km/h 37 km/h 88 % 0 mm 0 W/m2
07:39 10.6 °C 8.7 °C 1018.2 hPa WSW 19.3 km/h 30.6 km/h 88 % 0 mm 0 W/m2
07:44 10.6 °C 8.7 °C 1018.2 hPa WSW 19.3 km/h 29 km/h 88 % 0 mm 0 W/m2
07:49 10.6 °C 8.7 °C 1018.5 hPa WSW 17.7 km/h 25.7 km/h 88 % 0 mm 0 W/m2
07:54 10.5 °C 8.8 °C 1018.5 hPa WSW 14.5 km/h 20.9 km/h 89 % 0 mm 0 W/m2
08:00 10.4 °C 8.7 °C 1018.5 hPa WSW 11.3 km/h 17.7 km/h 89 % 0 mm 0 W/m2
08:05 10.4 °C 8.8 °C 1018.8 hPa West 11.3 km/h 14.5 km/h 90 % 0.25 mm 0 W/m2
08:10 10.3 °C 8.7 °C 1018.8 hPa West 9.7 km/h 20.9 km/h 90 % 0.51 mm 0 W/m2
08:15 10.2 °C 8.6 °C 1018.8 hPa WNW 11.3 km/h 17.7 km/h 90 % 1.02 mm 0 W/m2
08:20 10.1 °C 8.7 °C 1018.8 hPa West 16.1 km/h 25.7 km/h 91 % 1.78 mm 0 W/m2
08:25 9.9 °C 8.5 °C 1018.8 hPa West 12.9 km/h 25.7 km/h 91 % 2.29 mm 0 W/m2
08:30 9.7 °C 8.3 °C 1018.8 hPa West 16.1 km/h 24.1 km/h 91 % 2.29 mm 0 W/m2
08:35 9.7 °C 8.3 °C 1018.8 hPa West 12.9 km/h 19.3 km/h 91 % 2.29 mm 0 W/m2
08:40 9.6 °C 8.4 °C 1019.2 hPa West 9.7 km/h 16.1 km/h 92 % 2.29 mm 0 W/m2
08:45 9.6 °C 8.4 °C 1019.2 hPa WNW 11.3 km/h 17.7 km/h 92 % 2.29 mm 7 W/m2
08:50 9.5 °C 8.3 °C 1019.2 hPa WNW 16.1 km/h 30.6 km/h 92 % 2.29 mm 9 W/m2
08:55 9.5 °C 8.1 °C 1019.5 hPa WNW 20.9 km/h 35.4 km/h 91 % 2.29 mm 7 W/m2
09:00 9.4 °C 8 °C 1019.5 hPa West 16.1 km/h 29 km/h 91 % 2.29 mm 7 W/m2
09:05 9.4 °C 8 °C 1019.5 hPa WNW 14.5 km/h 20.9 km/h 91 % 2.29 mm 9 W/m2
09:10 9.3 °C 7.9 °C 1019.5 hPa WNW 11.3 km/h 16.1 km/h 91 % 2.29 mm 9 W/m2
09:15 9.3 °C 7.9 °C 1019.5 hPa West 11.3 km/h 16.1 km/h 91 % 1.52 mm 11 W/m2
09:20 9.2 °C 7.8 °C 1019.5 hPa WNW 6.4 km/h 12.9 km/h 91 % 1.02 mm 16 W/m2
09:25 9.2 °C 7.9 °C 1019.5 hPa WNW 11.3 km/h 24.1 km/h 92 % 0.76 mm 26 W/m2
09:30 9.1 °C 7.9 °C 1019.5 hPa West 14.5 km/h 20.9 km/h 92 % 1.02 mm 35 W/m2
09:35 9.1 °C 7.9 °C 1019.9 hPa WNW 11.3 km/h 22.5 km/h 92 % 0.76 mm 18 W/m2
09:40 8.9 °C 7.7 °C 1019.9 hPa NW 12.9 km/h 22.5 km/h 92 % 1.27 mm 11 W/m2
09:45 8.7 °C 7.5 °C 1020.2 hPa NW 14.5 km/h 24.1 km/h 92 % 1.52 mm 18 W/m2
09:50 8.4 °C 7.2 °C 1020.2 hPa NW 14.5 km/h 24.1 km/h 92 % 1.52 mm 30 W/m2
09:55 8.3 °C 7.1 °C 1020.5 hPa NW 16.1 km/h 24.1 km/h 92 % 1.52 mm 28 W/m2
10:00 8.2 °C 7.1 °C 1020.5 hPa NW 16.1 km/h 25.7 km/h 93 % 1.52 mm 19 W/m2
10:05 8 °C 6.8 °C 1020.5 hPa WNW 16.1 km/h 24.1 km/h 92 % 1.78 mm 26 W/m2
10:10 7.8 °C 6.7 °C 1020.5 hPa WNW 20.9 km/h 33.8 km/h 93 % 1.52 mm 39 W/m2
10:15 7.7 °C 6.5 °C 1020.5 hPa WNW 16.1 km/h 32.2 km/h 92 % 1.78 mm 49 W/m2
10:20 7.6 °C 6.6 °C 1020.5 hPa NW 14.5 km/h 24.1 km/h 93 % 1.52 mm 58 W/m2
10:25 7.6 °C 6.6 °C 1020.9 hPa WNW 12.9 km/h 19.3 km/h 93 % 1.52 mm 53 W/m2
10:31 7.6 °C 6.6 °C 1020.9 hPa WNW 16.1 km/h 29 km/h 93 % 1.52 mm 70 W/m2
10:36 7.6 °C 6.6 °C 1020.9 hPa WNW 17.7 km/h 29 km/h 93 % 1.27 mm 86 W/m2
10:41 7.6 °C 6.4 °C 1020.9 hPa WNW 16.1 km/h 24.1 km/h 92 % 1.02 mm 83 W/m2
10:46 7.6 °C 6.6 °C 1021.2 hPa WNW 12.9 km/h 19.3 km/h 93 % 0.76 mm 107 W/m2
10:51 7.6 °C 6.4 °C 1021.2 hPa WNW 14.5 km/h 24.1 km/h 92 % 0.76 mm 67 W/m2
10:56 7.6 °C 6.4 °C 1021.2 hPa WNW 16.1 km/h 24.1 km/h 92 % 0.76 mm 95 W/m2
11:01 7.6 °C 6.4 °C 1021.2 hPa WNW 12.9 km/h 20.9 km/h 92 % 0.51 mm 93 W/m2
11:06 7.6 °C 6.4 °C 1021.2 hPa WNW 14.5 km/h 20.9 km/h 92 % 0.51 mm 83 W/m2
11:11 7.7 °C 6.5 °C 1021.2 hPa WNW 11.3 km/h 19.3 km/h 92 % 0.25 mm 102 W/m2
11:16 7.7 °C 6.5 °C 1021.2 hPa WNW 14.5 km/h 20.9 km/h 92 % 0.25 mm 125 W/m2
11:21 7.7 °C 6.5 °C 1021.2 hPa WNW 16.1 km/h 30.6 km/h 92 % 0.25 mm 132 W/m2
11:26 7.7 °C 6.5 °C 1021.6 hPa WNW 16.1 km/h 29 km/h 92 % 0 mm 130 W/m2
11:31 7.8 °C 6.4 °C 1021.6 hPa WNW 19.3 km/h 35.4 km/h 91 % 0 mm 255 W/m2
11:36 7.9 °C 6.5 °C 1021.6 hPa WNW 16.1 km/h 25.7 km/h 91 % 0 mm 163 W/m2
11:41 8 °C 6.4 °C 1021.6 hPa WNW 16.1 km/h 22.5 km/h 90 % 0 mm 60 W/m2
11:46 7.9 °C 6.3 °C 1021.9 hPa WNW 22.5 km/h 32.2 km/h 90 % 0 mm 63 W/m2
11:51 7.8 °C 6.3 °C 1021.9 hPa WNW 17.7 km/h 29 km/h 90 % 0 mm 111 W/m2
11:56 7.7 °C 6 °C 1021.9 hPa WNW 20.9 km/h 33.8 km/h 89 % 0 mm 176 W/m2
12:01 7.7 °C 6 °C 1021.9 hPa WNW 17.7 km/h 35.4 km/h 89 % 0 mm 137 W/m2
12:06 7.7 °C 6 °C 1021.9 hPa NW 19.3 km/h 33.8 km/h 89 % 0 mm 120 W/m2
12:11 7.7 °C 6 °C 1022.2 hPa WNW 14.5 km/h 25.7 km/h 89 % 0 mm 207 W/m2
12:16 7.8 °C 5.9 °C 1022.2 hPa WNW 16.1 km/h 25.7 km/h 88 % 0 mm 139 W/m2
12:21 7.8 °C 5.8 °C 1022.2 hPa WNW 25.7 km/h 43.5 km/h 87 % 0 mm 97 W/m2
12:26 7.7 °C 5.7 °C 1022.2 hPa WNW 16.1 km/h 33.8 km/h 87 % 0 mm 97 W/m2
12:31 7.7 °C 5.7 °C 1022.6 hPa WNW 20.9 km/h 33.8 km/h 87 % 0 mm 116 W/m2
12:36 7.7 °C 5.7 °C 1022.6 hPa WNW 11.3 km/h 19.3 km/h 87 % 0 mm 125 W/m2
12:41 7.8 °C 5.9 °C 1022.2 hPa NW 17.7 km/h 30.6 km/h 88 % 0 mm 371 W/m2
12:46 8.1 °C 6.1 °C 1022.2 hPa WNW 17.7 km/h 33.8 km/h 87 % 0 mm 271 W/m2
12:52 8.2 °C 6 °C 1022.2 hPa WNW 17.7 km/h 29 km/h 86 % 0 mm 350 W/m2
12:57 8.4 °C 5.8 °C 1022.2 hPa WNW 22.5 km/h 37 km/h 84 % 0 mm 338 W/m2
13:02 8.4 °C 5.7 °C 1022.2 hPa NW 20.9 km/h 33.8 km/h 83 % 0 mm 355 W/m2
13:07 8.6 °C 5.9 °C 1022.2 hPa NW 16.1 km/h 32.2 km/h 83 % 0 mm 381 W/m2
13:12 8.8 °C 5.9 °C 1022.6 hPa WNW 24.1 km/h 38.6 km/h 82 % 0 mm 441 W/m2
13:17 8.8 °C 5.7 °C 1022.6 hPa WNW 17.7 km/h 30.6 km/h 81 % 0 mm 165 W/m2
13:22 8.7 °C 5.6 °C 1022.9 hPa WNW 20.9 km/h 35.4 km/h 81 % 0 mm 431 W/m2
13:27 8.8 °C 5.6 °C 1022.9 hPa WNW 25.7 km/h 41.8 km/h 80 % 0 mm 410 W/m2
13:32 8.9 °C 5.3 °C 1022.6 hPa NW 19.3 km/h 32.2 km/h 78 % 0 mm 373 W/m2
13:37 9.2 °C 5.7 °C 1022.6 hPa WNW 17.7 km/h 33.8 km/h 79 % 0 mm 352 W/m2
13:42 9.1 °C 5.1 °C 1022.9 hPa NW 24.1 km/h 46.7 km/h 76 % 0 mm 114 W/m2
13:47 8.8 °C 5 °C 1022.9 hPa NW 17.7 km/h 29 km/h 77 % 0 mm 77 W/m2
13:52 8.4 °C 4.8 °C 1023.2 hPa NW 22.5 km/h 38.6 km/h 78 % 0 mm 74 W/m2
13:57 8 °C 4.6 °C 1022.9 hPa NW 24.1 km/h 38.6 km/h 79 % 0 mm 60 W/m2
14:02 7.7 °C 4.3 °C 1023.2 hPa WNW 20.9 km/h 38.6 km/h 79 % 0 mm 88 W/m2
14:07 7.6 °C 4.4 °C 1023.2 hPa WNW 16.1 km/h 29 km/h 80 % 0 mm 244 W/m2
14:12 7.7 °C 4.3 °C 1023.6 hPa WNW 20.9 km/h 33.8 km/h 79 % 0 mm 241 W/m2
14:17 7.9 °C 4.5 °C 1023.6 hPa WNW 16.1 km/h 29 km/h 79 % 0 mm 244 W/m2
14:22 8.1 °C 4.5 °C 1023.6 hPa WNW 19.3 km/h 29 km/h 78 % 0 mm 239 W/m2
14:27 8.1 °C 4.3 °C 1023.6 hPa WNW 22.5 km/h 35.4 km/h 77 % 0 mm 229 W/m2
14:32 8.2 °C 4.2 °C 1023.9 hPa WNW 20.9 km/h 32.2 km/h 76 % 0 mm 221 W/m2
14:37 8.2 °C 4.2 °C 1023.9 hPa NW 16.1 km/h 25.7 km/h 76 % 0 mm 218 W/m2
14:42 8.2 °C 4.2 °C 1024.3 hPa WNW 17.7 km/h 30.6 km/h 76 % 0 mm 288 W/m2
14:47 8.4 °C 4.4 °C 1024.3 hPa WNW 16.1 km/h 33.8 km/h 76 % 0 mm 234 W/m2
14:52 8.4 °C 4.2 °C 1024.3 hPa NW 19.3 km/h 32.2 km/h 75 % 0 mm 197 W/m2
14:57 8.5 °C 4.3 °C 1024.3 hPa WNW 19.3 km/h 32.2 km/h 75 % 0 mm 216 W/m2
15:02 8.4 °C 4.1 °C 1024.3 hPa WNW 17.7 km/h 32.2 km/h 74 % 0 mm 229 W/m2
15:07 8.5 °C 4.1 °C 1024.6 hPa WNW 17.7 km/h 24.1 km/h 74 % 0 mm 225 W/m2
15:12 8.4 °C 4.1 °C 1024.6 hPa WNW 20.9 km/h 30.6 km/h 74 % 0 mm 46 W/m2
15:18 8.2 °C 3.8 °C 1024.6 hPa NW 19.3 km/h 30.6 km/h 74 % 0 mm 30 W/m2
15:23 7.8 °C 3.8 °C 1024.9 hPa WNW 22.5 km/h 37 km/h 76 % 0 mm 37 W/m2
15:28 7.4 °C 3.3 °C 1024.9 hPa WNW 22.5 km/h 37 km/h 75 % 0 mm 30 W/m2
15:33 7.2 °C 3.4 °C 1024.9 hPa WNW 17.7 km/h 32.2 km/h 77 % 0 mm 28 W/m2
15:38 7.1 °C 3.5 °C 1024.9 hPa WNW 20.9 km/h 32.2 km/h 78 % 0 mm 37 W/m2
15:43 6.9 °C 3.3 °C 1024.9 hPa WNW 17.7 km/h 24.1 km/h 78 % 0 mm 33 W/m2
15:48 6.9 °C 3.5 °C 1024.9 hPa West 14.5 km/h 24.1 km/h 79 % 0 mm 28 W/m2
15:53 6.8 °C 3.4 °C 1025.3 hPa WNW 12.9 km/h 20.9 km/h 79 % 0 mm 28 W/m2
15:58 6.7 °C 3.3 °C 1025.3 hPa WNW 17.7 km/h 30.6 km/h 79 % 0 mm 25 W/m2
16:03 6.7 °C 3.1 °C 1025.6 hPa NW 12.9 km/h 22.5 km/h 78 % 0 mm 23 W/m2
16:08 6.6 °C 3.1 °C 1025.6 hPa NW 11.3 km/h 20.9 km/h 78 % 0 mm 21 W/m2
16:13 6.4 °C 2.8 °C 1026 hPa NW 9.7 km/h 17.7 km/h 78 % 0 mm 19 W/m2
16:18 6.3 °C 2.7 °C 1026 hPa NW 11.3 km/h 20.9 km/h 78 % 0 mm 16 W/m2
16:23 6.2 °C 2.8 °C 1026 hPa NW 9.7 km/h 17.7 km/h 79 % 0 mm 14 W/m2
16:28 6.2 °C 2.8 °C 1026 hPa WNW 19.3 km/h 33.8 km/h 79 % 0 mm 11 W/m2
16:33 6.1 °C 2.9 °C 1026 hPa WNW 11.3 km/h 14.5 km/h 80 % 0 mm 9 W/m2
16:38 6.1 °C 2.9 °C 1026 hPa WNW 11.3 km/h 22.5 km/h 80 % 0 mm 7 W/m2
16:43 5.9 °C 2.9 °C 1026 hPa WNW 12.9 km/h 17.7 km/h 81 % 0 mm 5 W/m2
16:48 5.9 °C 2.9 °C 1026.3 hPa WNW 12.9 km/h 22.5 km/h 81 % 0 mm 0 W/m2
16:53 5.8 °C 2.8 °C 1026.3 hPa WNW 14.5 km/h 19.3 km/h 81 % 0 mm 0 W/m2
16:58 5.8 °C 2.8 °C 1026.3 hPa WNW 14.5 km/h 22.5 km/h 81 % 0 mm 0 W/m2
17:03 5.8 °C 2.8 °C 1026.3 hPa WNW 14.5 km/h 20.9 km/h 81 % 0 mm 0 W/m2
17:08 5.8 °C 2.8 °C 1026.3 hPa West 16.1 km/h 25.7 km/h 81 % 0 mm 0 W/m2
17:13 5.9 °C 2.7 °C 1026.6 hPa WNW 14.5 km/h 22.5 km/h 80 % 0 mm 0 W/m2
17:19 5.9 °C 2.9 °C 1026.6 hPa WNW 12.9 km/h 19.3 km/h 81 % 0 mm 0 W/m2
17:24 5.9 °C 2.9 °C 1026.6 hPa WNW 11.3 km/h 19.3 km/h 81 % 0 mm 0 W/m2
17:29 5.9 °C 2.9 °C 1027 hPa WNW 11.3 km/h 16.1 km/h 81 % 0 mm 0 W/m2
17:34 6 °C 3 °C 1027 hPa WNW 9.7 km/h 16.1 km/h 81 % 0 mm 0 W/m2
17:39 6 °C 3 °C 1027 hPa WNW 8 km/h 20.9 km/h 81 % 0 mm 0 W/m2
17:44 6 °C 3 °C 1027 hPa WNW 11.3 km/h 19.3 km/h 81 % 0 mm 0 W/m2
17:49 5.9 °C 2.9 °C 1027.3 hPa WNW 11.3 km/h 19.3 km/h 81 % 0 mm 0 W/m2
17:54 5.9 °C 2.9 °C 1027.3 hPa WNW 12.9 km/h 19.3 km/h 81 % 0 mm 0 W/m2
17:59 5.9 °C 2.9 °C 1027.3 hPa WNW 14.5 km/h 22.5 km/h 81 % 0 mm 0 W/m2
18:04 5.8 °C 2.8 °C 1027.3 hPa WNW 12.9 km/h 19.3 km/h 81 % 0 mm 0 W/m2
18:09 5.7 °C 2.7 °C 1027.3 hPa WNW 14.5 km/h 22.5 km/h 81 % 0 mm 0 W/m2
18:14 5.6 °C 2.8 °C 1027.7 hPa WNW 12.9 km/h 20.9 km/h 82 % 0 mm 0 W/m2
18:19 5.5 °C 2.7 °C 1027.7 hPa WNW 14.5 km/h 22.5 km/h 82 % 0 mm 0 W/m2
18:24 5.4 °C 2.6 °C 1027.7 hPa West 16.1 km/h 22.5 km/h 82 % 0 mm 0 W/m2
18:29 5.4 °C 2.6 °C 1027.7 hPa WNW 9.7 km/h 14.5 km/h 82 % 0 mm 0 W/m2
18:34 5.3 °C 2.5 °C 1027.7 hPa WNW 8 km/h 12.9 km/h 82 % 0 mm 0 W/m2
18:39 5.2 °C 2.4 °C 1028 hPa WNW 9.7 km/h 14.5 km/h 82 % 0 mm 0 W/m2
18:44 5.2 °C 2.4 °C 1028 hPa WNW 9.7 km/h 17.7 km/h 82 % 0 mm 0 W/m2
18:49 5.1 °C 2.4 °C 1028 hPa WNW 12.9 km/h 20.9 km/h 83 % 0 mm 0 W/m2
18:54 5.1 °C 2.4 °C 1028 hPa WNW 12.9 km/h 22.5 km/h 83 % 0 mm 0 W/m2
18:59 5.1 °C 2.4 °C 1027.7 hPa WNW 14.5 km/h 22.5 km/h 83 % 0 mm 0 W/m2
19:04 5.1 °C 2.4 °C 1028 hPa WNW 16.1 km/h 25.7 km/h 83 % 0 mm 0 W/m2
19:09 5.1 °C 2.4 °C 1027.7 hPa WNW 16.1 km/h 22.5 km/h 83 % 0 mm 0 W/m2
19:14 5.1 °C 2.4 °C 1028 hPa WNW 14.5 km/h 22.5 km/h 83 % 0 mm 0 W/m2
19:19 5 °C 2.3 °C 1028 hPa WNW 14.5 km/h 20.9 km/h 83 % 0 mm 0 W/m2
19:24 4.9 °C 2.3 °C 1028.3 hPa West 9.7 km/h 17.7 km/h 83 % 0 mm 0 W/m2
19:29 4.9 °C 2.3 °C 1028.7 hPa West 9.7 km/h 20.9 km/h 83 % 0 mm 0 W/m2
19:34 4.9 °C 2.3 °C 1028.3 hPa West 12.9 km/h 19.3 km/h 83 % 0 mm 0 W/m2
19:39 4.9 °C 2.3 °C 1028.3 hPa West 12.9 km/h 19.3 km/h 83 % 0 mm 0 W/m2
19:44 4.8 °C 2.2 °C 1028.3 hPa West 16.1 km/h 22.5 km/h 83 % 0 mm 0 W/m2
19:49 4.8 °C 2.3 °C 1028.7 hPa West 14.5 km/h 22.5 km/h 84 % 0 mm 0 W/m2
19:54 4.8 °C 2.3 °C 1028.7 hPa WNW 16.1 km/h 22.5 km/h 84 % 0 mm 0 W/m2
19:59 4.7 °C 2.2 °C 1028.7 hPa WNW 14.5 km/h 19.3 km/h 84 % 0 mm 0 W/m2
20:04 4.7 °C 2.2 °C 1029 hPa WNW 11.3 km/h 16.1 km/h 84 % 0 mm 0 W/m2
20:09 4.7 °C 2.2 °C 1029 hPa WNW 14.5 km/h 20.9 km/h 84 % 0 mm 0 W/m2
20:14 4.7 °C 2.2 °C 1029 hPa NW 12.9 km/h 20.9 km/h 84 % 0 mm 0 W/m2
20:19 4.7 °C 2.2 °C 1029 hPa WNW 14.5 km/h 22.5 km/h 84 % 0 mm 0 W/m2
20:24 4.7 °C 2.2 °C 1029 hPa WNW 14.5 km/h 20.9 km/h 84 % 0 mm 0 W/m2
20:29 4.7 °C 2.2 °C 1029 hPa NW 12.9 km/h 17.7 km/h 84 % 0 mm 0 W/m2
20:35 4.6 °C 2.1 °C 1029 hPa NW 8 km/h 17.7 km/h 84 % 0 mm 0 W/m2
20:40 4.6 °C 2.1 °C 1029.3 hPa NW 3.2 km/h 8 km/h 84 % 0 mm 0 W/m2
20:45 4.6 °C 2.1 °C 1029.3 hPa Calm   6.4 km/h 84 % 0 mm 0 W/m2
20:50 4.4 °C 1.8 °C 1029.3 hPa Calm     83 % 0 mm 0 W/m2
20:55 4.3 °C 1.8 °C 1029.3 hPa Calm   4.8 km/h 84 % 0 mm 0 W/m2
21:00 4.2 °C 1.7 °C 1029.3 hPa Calm   3.2 km/h 84 % 0 mm 0 W/m2
21:05 4.1 °C 1.6 °C 1029.7 hPa WNW 1.6 km/h 8 km/h 84 % 0 mm 0 W/m2
21:10 4.1 °C 1.8 °C 1029.7 hPa WNW 6.4 km/h 11.3 km/h 85 % 0 mm 0 W/m2
21:15 4.1 °C 1.8 °C 1029.3 hPa NW 9.7 km/h 17.7 km/h 85 % 0 mm 0 W/m2
21:20 4.1 °C 1.9 °C 1029.3 hPa NW 9.7 km/h 16.1 km/h 86 % 0 mm 0 W/m2
21:25 4.2 °C 2.1 °C 1029.3 hPa WNW 11.3 km/h 16.1 km/h 86 % 0 mm 0 W/m2
21:30 4.3 °C 2.2 °C 1029.3 hPa WNW 6.4 km/h 9.7 km/h 86 % 0 mm 0 W/m2
21:35 4.3 °C 2 °C 1029.3 hPa West 8 km/h 14.5 km/h 85 % 0 mm 0 W/m2
21:40 4.3 °C 2 °C 1029.3 hPa WNW 6.4 km/h 12.9 km/h 85 % 0 mm 0 W/m2
21:45 4.4 °C 2.1 °C 1029.7 hPa WNW 3.2 km/h 8 km/h 85 % 0 mm 0 W/m2
21:50 4.3 °C 2 °C 1029.3 hPa Calm   3.2 km/h 85 % 0 mm 0 W/m2
21:55 4.3 °C 2 °C 1029.7 hPa WSW 1.6 km/h 12.9 km/h 85 % 0 mm 0 W/m2
22:00 4.3 °C 2 °C 1029.7 hPa Calm     85 % 0 mm 0 W/m2
22:05 4.2 °C 1.7 °C 1029.7 hPa Calm   1.6 km/h 84 % 0 mm 0 W/m2
22:10 4.1 °C 1.6 °C 1029.7 hPa Calm   1.6 km/h 84 % 0 mm 0 W/m2
22:15 4 °C 1.7 °C 1029.3 hPa WNW 3.2 km/h 9.7 km/h 85 % 0 mm 0 W/m2
22:20 3.9 °C 1.6 °C 1029.7 hPa WNW 4.8 km/h 11.3 km/h 85 % 0 mm 0 W/m2
22:25 3.8 °C 1.5 °C 1029.3 hPa WNW 4.8 km/h 8 km/h 85 % 0 mm 0 W/m2
22:30 3.8 °C 1.5 °C 1029.7 hPa Calm   4.8 km/h 85 % 0 mm 0 W/m2
22:35 3.7 °C 1.4 °C 1029.7 hPa Calm     85 % 0 mm 0 W/m2
22:40 3.6 °C 1.3 °C 1029.3 hPa WNW 1.6 km/h 8 km/h 85 % 0 mm 0 W/m2
22:45 3.5 °C 1.4 °C 1029.7 hPa WNW 4.8 km/h 8 km/h 86 % 0 mm 0 W/m2
22:50 3.5 °C 1.6 °C 1029.7 hPa WSW 6.4 km/h 9.7 km/h 87 % 0 mm 0 W/m2
22:55 3.5 °C 1.6 °C 1029.7 hPa West 6.4 km/h 9.7 km/h 87 % 0 mm 0 W/m2
23:00 3.4 °C 1.4 °C 1029.3 hPa WNW 4.8 km/h 9.7 km/h 87 % 0 mm 0 W/m2
23:05 3.4 °C 1.4 °C 1029.7 hPa West 4.8 km/h 9.7 km/h 87 % 0 mm 0 W/m2
23:10 3.4 °C 1.4 °C 1029.3 hPa West 6.4 km/h 9.7 km/h 87 % 0 mm 0 W/m2
23:15 3.5 °C 1.7 °C 1029.3 hPa WNW 8 km/h 9.7 km/h 88 % 0 mm 0 W/m2
23:21 3.6 °C 1.8 °C 1029.7 hPa West 9.7 km/h 17.7 km/h 88 % 0 mm 0 W/m2
23:26 3.7 °C 1.9 °C 1029.7 hPa West 11.3 km/h 16.1 km/h 88 % 0 mm 0 W/m2
23:31 3.9 °C 1.9 °C 1029.3 hPa West 9.7 km/h 16.1 km/h 87 % 0 mm 0 W/m2
23:36 3.9 °C 1.9 °C 1029.7 hPa West 8 km/h 12.9 km/h 87 % 0 mm 0 W/m2
23:41 4 °C 2.1 °C 1029.7 hPa West 6.4 km/h 9.7 km/h 87 % 0 mm 0 W/m2
23:46 4.1 °C 2.1 °C 1029.7 hPa WSW 6.4 km/h 9.7 km/h 87 % 0 mm 0 W/m2
23:51 4.1 °C 2.1 °C 1029.7 hPa WSW 3.2 km/h 8 km/h 87 % 0 mm 0 W/m2
23:56 4.1 °C 2.1 °C 1029.3 hPa Calm     87 % 0 mm 0 W/m2
Delerius-Weather
Compliments of Weather Underground - 2.25 mb

Data updates at regular intervals.